Time;durP1;ratioP1;P1;durP2;ratioP2;P2;SDS_P1;SDS_P2;PMS_P1;PMS_P2;Temp;Humidity;BMP_temperature;BMP_pressure;BME280_temperature;BME280_humidity;BME280_pressure;Samples;Min_cycle;Max_cycle;Signal;HPM_P1;HPM_P2
2022/10/23 00:00:38;;;;;;;37.45;17.67;;;;;;;12.18;64.58;100239.41;5080043;28;20130;-69
2022/10/23 00:03:04;;;;;;;31.08;17.42;;;;;;;12.07;64.51;100245.00;5080823;28;20036;-68
2022/10/23 00:05:30;;;;;;;33.47;17.35;;;;;;;12.04;64.89;100240.00;5079280;28;20098;-69
2022/10/23 00:07:59;;;;;;;44.60;17.85;;;;;;;12.21;64.15;100243.56;5079604;28;20036;-69
2022/10/23 00:10:26;;;;;;;38.15;17.35;;;;;;;12.26;63.82;100251.88;5080273;28;20032;-69
2022/10/23 00:12:53;;;;;;;40.55;17.92;;;;;;;12.07;65.08;100245.84;5079804;28;20210;-69
2022/10/23 00:15:21;;;;;;;35.00;18.13;;;;;;;12.15;64.69;100227.28;5079603;28;20040;-68
2022/10/23 00:17:47;;;;;;;46.60;20.42;;;;;;;11.97;65.58;100234.50;5080177;28;20330;-69
2022/10/23 00:20:14;;;;;;;35.28;19.63;;;;;;;12.03;65.68;100220.59;5079362;28;20028;-68
2022/10/23 00:22:40;;;;;;;30.70;17.83;;;;;;;12.02;65.18;100218.94;5080220;28;20339;-69
2022/10/23 00:25:07;;;;;;;31.83;18.30;;;;;;;12.10;65.01;100211.00;5082249;28;20032;-69
2022/10/23 00:27:33;;;;;;;36.50;19.33;;;;;;;12.17;64.95;100208.53;5081109;28;20039;-69
2022/10/23 00:29:58;;;;;;;34.88;18.92;;;;;;;12.11;65.38;100207.34;5079411;28;20032;-69
2022/10/23 00:32:24;;;;;;;43.15;19.55;;;;;;;12.15;64.55;100213.19;5079979;28;20096;-69
2022/10/23 00:34:50;;;;;;;39.25;19.17;;;;;;;12.20;64.27;100212.69;5079172;28;20037;-69
2022/10/23 00:37:16;;;;;;;38.88;20.20;;;;;;;11.83;66.18;100203.25;5080002;28;20051;-68
2022/10/23 00:39:41;;;;;;;35.30;20.15;;;;;;;11.88;65.79;100221.34;5078685;28;20318;-69
2022/10/23 00:42:19;;;;;;;39.05;19.95;;;;;;;12.02;65.77;100215.44;5079631;28;20083;-69
2022/10/23 00:44:45;;;;;;;38.60;19.90;;;;;;;11.93;66.83;100214.59;5081846;28;20364;-69
2022/10/23 00:47:12;;;;;;;40.90;21.42;;;;;;;11.98;66.28;100214.94;5079659;28;20025;-69
2022/10/23 00:49:38;;;;;;;38.28;21.88;;;;;;;11.85;66.73;100217.19;5098018;28;20020;-69
2022/10/23 00:52:07;;;;;;;43.97;20.67;;;;;;;11.95;66.89;100217.91;5079969;28;20449;-69
2022/10/23 00:54:39;;;;;;;42.53;21.10;;;;;;;12.11;66.18;100215.31;5082557;28;20029;-68
2022/10/23 00:57:10;;;;;;;39.72;21.20;;;;;;;12.12;66.41;100203.72;5080874;28;20093;-68
2022/10/23 00:59:36;;;;;;;40.17;21.10;;;;;;;12.07;66.38;100200.72;5078852;28;20074;-68
2022/10/23 01:02:03;;;;;;;36.28;19.60;;;;;;;12.03;66.50;100196.72;5078883;28;20049;-69
2022/10/23 01:04:29;;;;;;;38.55;20.33;;;;;;;12.08;66.66;100199.72;5078338;28;20230;-69
2022/10/23 01:07:32;;;;;;;38.75;20.95;;;;;;;12.07;66.28;100203.34;5079553;28;20024;-69
2022/10/23 01:10:14;;;;;;;39.60;20.23;;;;;;;12.14;66.12;100196.41;5081746;28;20043;-69
2022/10/23 01:12:53;;;;;;;39.50;20.55;;;;;;;11.95;67.21;100191.38;5080448;28;20020;-68
2022/10/23 01:15:25;;;;;;;38.35;19.73;;;;;;;11.96;66.87;100193.03;5078661;28;20037;-68
2022/10/23 01:18:12;;;;;;;38.33;20.27;;;;;;;11.99;66.81;100200.69;5080181;28;20032;-68
2022/10/23 01:20:47;;;;;;;41.90;19.95;;;;;;;12.03;66.60;100202.00;5079568;28;20044;-68
2022/10/23 01:23:21;;;;;;;36.17;19.48;;;;;;;11.70;66.98;100203.66;5059436;28;20355;-68
2022/10/23 01:25:58;;;;;;;;;;;;;;;11.90;66.09;100203.47;5078642;28;20048;-68
2022/10/23 01:28:38;;;;;;;31.10;18.20;;;;;;;11.71;66.37;100213.28;5075907;28;19919;-68
2022/10/23 01:31:10;;;;;;;38.33;19.08;;;;;;;11.73;67.19;100211.31;5075918;28;20036;-68
2022/10/23 01:34:04;;;;;;;36.45;18.95;;;;;;;11.64;66.84;100199.00;5078946;28;20021;-68
2022/10/23 01:36:33;;;;;;;27.48;16.88;;;;;;;11.66;66.99;100188.22;5073732;28;20041;-68
2022/10/23 01:39:07;;;;;;;32.78;17.63;;;;;;;11.81;65.63;100195.47;5081084;28;20025;-68
2022/10/23 01:41:36;;;;;;;41.03;18.95;;;;;;;11.80;66.13;100177.88;5078998;28;20190;-68
2022/10/23 01:44:18;;;;;;;31.15;18.23;;;;;;;11.94;65.61;100180.91;5081832;28;20035;-68
2022/10/23 01:46:47;;;;;;;37.28;18.95;;;;;;;11.93;65.71;100190.69;5079964;28;20084;-68
2022/10/23 01:49:14;;;;;;;37.38;18.95;;;;;;;11.96;65.47;100193.03;5078579;28;20088;-68
2022/10/23 01:51:45;;;;;;;34.70;19.50;;;;;;;11.83;65.70;100182.03;5081823;28;20036;-68
2022/10/23 01:54:13;;;;;;;30.67;18.70;;;;;;;11.82;65.99;100183.03;5077168;28;20020;-68
2022/10/23 01:56:43;;;;;;;32.63;18.15;;;;;;;11.80;67.26;100185.84;5078387;28;20036;-68
2022/10/23 01:59:13;;;;;;;41.38;20.10;;;;;;;11.90;66.47;100184.88;5077866;28;20056;-68
2022/10/23 02:01:43;;;;;;;32.15;17.73;;;;;;;11.73;68.47;100176.81;5077569;28;20032;-68
2022/10/23 02:04:12;;;;;;;40.13;19.90;;;;;;;11.86;67.89;100183.53;5078705;28;20427;-68
2022/10/23 02:06:37;;;;;;;37.45;18.70;;;;;;;11.62;69.11;100185.06;5077882;28;20050;-68
2022/10/23 02:09:05;;;;;;;34.13;19.05;;;;;;;11.74;68.68;100186.44;5077659;28;20051;-67
2022/10/23 02:11:37;;;;;;;32.55;18.85;;;;;;;11.72;69.76;100179.63;5078690;28;20082;-69
2022/10/23 02:14:15;;;;;;;33.15;19.13;;;;;;;11.89;68.47;100183.22;5078342;28;20235;-70
2022/10/23 02:16:51;;;;;;;32.55;19.02;;;;;;;11.81;69.63;100186.66;5079396;28;20056;-67
2022/10/23 02:19:20;;;;;;;40.47;21.42;;;;;;;11.61;70.03;100182.56;5079888;28;20020;-67
2022/10/23 02:22:08;;;;;;;44.38;21.02;;;;;;;11.85;69.29;100187.19;5077358;28;20024;-67
2022/10/23 02:24:40;;;;;;;38.22;20.65;;;;;;;11.45;70.28;100196.56;5078131;28;20044;-68
2022/10/23 02:27:15;;;;;;;37.20;20.33;;;;;;;11.05;72.55;100208.53;5077331;28;20289;-67
2022/10/23 02:30:08;;;;;;;35.08;19.80;;;;;;;11.42;70.62;100202.97;5075693;28;20025;-67
2022/10/23 02:32:37;;;;;;;38.53;19.77;;;;;;;11.63;69.67;100204.47;5074963;28;20063;-68
2022/10/23 02:35:03;;;;;;;38.53;19.70;;;;;;;11.73;69.06;100219.25;5078382;28;20104;-67
2022/10/23 02:37:29;;;;;;;36.63;20.08;;;;;;;11.82;68.99;100220.16;5077651;28;20032;-68
2022/10/23 02:39:55;;;;;;;35.00;20.08;;;;;;;11.83;68.46;100227.13;5077327;28;20496;-67
2022/10/23 02:42:32;;;;;;;34.33;18.42;;;;;;;11.79;67.98;100225.78;5059569;28;20099;-67
2022/10/23 02:45:10;;;;;;;38.08;19.00;;;;;;;11.63;68.70;100217.72;5078051;28;20040;-67
2022/10/23 02:47:55;;;;;;;34.47;18.65;;;;;;;11.44;68.77;100209.00;5080244;28;20063;-69
2022/10/23 02:50:52;;;;;;;39.63;19.38;;;;;;;11.48;68.29;100210.34;5078489;28;20044;-67
2022/10/23 02:53:43;;;;;;;39.17;20.15;;;;;;;10.91;71.42;100226.78;5075113;28;20040;-67
2022/10/23 02:56:22;;;;;;;36.65;19.08;;;;;;;10.81;71.96;100224.22;5071651;28;20475;-70
2022/10/23 02:59:04;;;;;;;35.53;18.83;;;;;;;11.16;71.42;100215.38;5077193;28;20265;-68
2022/10/23 03:01:41;;;;;;;36.47;18.92;;;;;;;11.28;71.04;100234.53;5075825;28;20029;-67
2022/10/23 03:04:09;;;;;;;39.72;18.80;;;;;;;11.41;70.39;100234.94;5075383;28;20020;-67
2022/10/23 03:06:35;;;;;;;38.60;19.33;;;;;;;11.62;69.55;100230.16;5078298;28;20135;-67
2022/10/23 03:09:06;;;;;;;42.50;21.67;;;;;;;11.54;70.45;100232.75;5077032;28;20472;-68
2022/10/23 03:11:32;;;;;;;43.42;25.10;;;;;;;11.55;69.79;100226.47;5078869;28;20101;-67
2022/10/23 03:13:57;;;;;;;40.45;23.02;;;;;;;11.60;69.94;100229.47;5081696;28;20029;-67
2022/10/23 03:16:23;;;;;;;39.42;19.27;;;;;;;11.51;69.77;100225.94;5080389;28;20040;-69
2022/10/23 03:18:48;;;;;;;31.20;18.38;;;;;;;11.80;69.75;100230.13;5080600;28;20074;-68
2022/10/23 03:21:14;;;;;;;29.70;18.95;;;;;;;11.81;69.48;100229.94;5081451;28;20051;-68
2022/10/23 03:23:39;;;;;;;35.08;19.30;;;;;;;11.90;69.69;100232.66;5082891;28;20033;-67
2022/10/23 03:26:05;;;;;;;36.92;19.42;;;;;;;11.95;68.76;100231.19;5079947;28;20028;-67
2022/10/23 03:28:30;;;;;;;153.70;81.65;;;;;;;12.05;68.68;100231.88;5080922;28;20031;-67
2022/10/23 03:30:56;;;;;;;133.43;74.38;;;;;;;12.17;67.13;100237.75;5080296;28;20033;-67
2022/10/23 03:33:22;;;;;;;39.28;20.42;;;;;;;12.15;67.61;100243.22;5080508;28;20025;-67
2022/10/23 03:35:48;;;;;;;34.70;21.02;;;;;;;12.19;67.80;100232.28;5080916;28;20044;-67
2022/10/23 03:38:14;;;;;;;33.83;18.92;;;;;;;12.22;67.19;100237.25;5080061;28;20024;-67
2022/10/23 03:40:39;;;;;;;33.38;17.50;;;;;;;12.18;66.77;100247.38;5081526;28;20214;-67
2022/10/23 03:43:05;;;;;;;28.77;16.23;;;;;;;11.78;66.55;100255.97;5080040;28;20063;-67
2022/10/23 03:45:31;;;;;;;30.77;16.13;;;;;;;11.52;67.11;100255.94;5081900;28;20318;-67
2022/10/23 03:47:57;;;;;;;33.78;15.80;;;;;;;11.25;67.89;100251.56;5082466;28;20062;-67
2022/10/23 03:50:23;;;;;;;39.10;17.83;;;;;;;11.12;68.98;100264.38;5080631;28;20036;-67
2022/10/23 03:52:48;;;;;;;31.23;16.77;;;;;;;11.05;70.24;100265.97;5061229;28;20031;-67
2022/10/23 03:55:14;;;;;;;31.02;17.73;;;;;;;10.86;71.21;100264.31;5080273;28;20036;-67
2022/10/23 03:57:40;;;;;;;31.63;16.70;;;;;;;10.91;70.38;100250.63;5079261;28;20028;-67
2022/10/23 04:00:06;;;;;;;33.33;18.27;;;;;;;10.90;71.44;100249.78;5081087;28;20095;-67
2022/10/23 04:02:32;;;;;;;37.20;19.95;;;;;;;11.07;71.49;100240.16;5079985;28;20036;-67
2022/10/23 04:04:57;;;;;;;37.08;23.27;;;;;;;11.20;71.56;100245.91;5079462;28;20065;-67
2022/10/23 04:07:23;;;;;;;34.58;19.60;;;;;;;11.20;71.45;100245.91;5080190;28;20044;-67
2022/10/23 04:09:48;;;;;;;32.05;18.17;;;;;;;11.04;72.27;100246.59;5061023;28;20036;-67
2022/10/23 04:12:14;;;;;;;28.83;16.98;;;;;;;10.84;73.81;100216.78;5077186;28;20377;-68
2022/10/23 04:14:40;;;;;;;30.65;16.60;;;;;;;10.97;73.38;100215.56;5080696;28;20261;-67
2022/10/23 04:17:05;;;;;;;32.35;16.42;;;;;;;11.25;72.20;100214.47;5080036;28;20322;-67
2022/10/23 04:19:31;;;;;;;29.10;16.20;;;;;;;11.50;71.94;100249.97;5080544;28;20062;-67
2022/10/23 04:21:56;;;;;;;27.75;14.73;;;;;;;11.44;70.83;100262.03;5078720;28;20203;-68
2022/10/23 04:24:24;;;;;;;29.48;17.80;;;;;;;10.74;73.64;100268.19;5080247;28;20095;-67
2022/10/23 04:26:50;;;;;;;34.30;16.85;;;;;;;10.57;75.08;100264.53;5080643;28;20182;-67
2022/10/23 04:29:15;;;;;;;37.30;18.98;;;;;;;10.60;74.72;100264.22;5082380;28;20310;-67
2022/10/23 04:31:41;;;;;;;36.55;17.67;;;;;;;10.78;74.26;100240.41;5080704;28;20066;-67
2022/10/23 04:34:07;;;;;;;31.50;16.33;;;;;;;10.84;73.92;100250.41;5083096;28;20349;-67
2022/10/23 04:36:32;;;;;;;40.90;20.25;;;;;;;10.72;74.60;100249.78;5081147;28;20226;-67
2022/10/23 04:38:58;;;;;;;43.38;24.35;;;;;;;10.57;74.74;100221.31;5080008;28;20066;-67
2022/10/23 04:41:23;;;;;;;41.10;22.85;;;;;;;10.91;74.54;100258.56;5082427;28;20314;-67
2022/10/23 04:43:49;;;;;;;38.28;22.38;;;;;;;11.08;74.35;100240.00;5081326;28;20040;-68
2022/10/23 04:46:15;;;;;;;35.60;20.30;;;;;;;11.48;72.54;100246.63;5078902;28;20044;-67
2022/10/23 04:48:40;;;;;;;34.05;18.38;;;;;;;11.67;71.75;100248.25;5080115;28;20078;-68
2022/10/23 04:51:06;;;;;;;29.73;17.05;;;;;;;11.80;71.63;100248.69;5078519;28;20047;-67
2022/10/23 04:53:32;;;;;;;32.67;17.02;;;;;;;11.90;70.14;100243.25;5081447;28;20059;-68
2022/10/23 04:55:58;;;;;;;24.70;15.18;;;;;;;11.90;70.98;100252.06;5081866;28;20314;-67
2022/10/23 04:58:25;;;;;;;23.58;15.05;;;;;;;11.99;70.02;100256.41;5079398;28;20091;-67
2022/10/23 05:00:51;;;;;;;33.70;15.15;;;;;;;12.08;69.23;100252.81;5078705;28;20090;-67
2022/10/23 05:03:18;;;;;;;31.75;15.40;;;;;;;12.12;69.45;100250.66;5079718;28;20083;-67
2022/10/23 05:05:44;;;;;;;24.65;14.70;;;;;;;12.14;69.34;100238.06;5078645;28;20051;-67
2022/10/23 05:08:10;;;;;;;30.00;14.48;;;;;;;12.19;70.10;100241.06;5079324;28;20351;-67
2022/10/23 05:10:36;;;;;;;31.23;13.82;;;;;;;12.30;69.87;100251.41;5077989;28;20040;-67
2022/10/23 05:13:03;;;;;;;26.55;14.73;;;;;;;12.46;69.10;100263.88;5078297;28;20259;-68
2022/10/23 05:15:29;;;;;;;23.27;13.48;;;;;;;12.62;67.79;100266.63;5079061;28;20028;-68
2022/10/23 05:18:00;;;;;;;42.17;19.30;;;;;;;12.18;67.63;100260.63;5059706;28;20048;-68
2022/10/23 05:20:32;;;;;;;53.80;23.70;;;;;;;11.81;68.82;100267.09;5067458;28;20238;-67
2022/10/23 05:23:01;;;;;;;56.28;25.38;;;;;;;11.51;70.36;100264.88;5081468;28;20217;-68
2022/10/23 05:25:28;;;;;;;53.00;24.70;;;;;;;11.54;70.92;100272.53;5080261;28;20028;-67
2022/10/23 05:27:54;;;;;;;57.92;24.25;;;;;;;11.57;70.46;100276.69;5079206;28;20036;-67
2022/10/23 05:30:19;;;;;;;47.67;23.48;;;;;;;11.63;71.18;100276.06;5078014;28;20054;-68
2022/10/23 05:32:45;;;;;;;42.95;22.65;;;;;;;11.78;71.27;100285.16;5080416;28;20028;-67
2022/10/23 05:35:16;;;;;;;40.88;19.52;;;;;;;11.91;70.52;100277.59;5080520;28;20024;-67
2022/10/23 05:37:44;;;;;;;37.25;17.63;;;;;;;12.06;69.88;100286.63;5080412;28;20100;-67
2022/10/23 05:40:10;;;;;;;30.85;17.02;;;;;;;12.22;70.06;100291.19;5082277;28;20036;-67
2022/10/23 05:42:36;;;;;;;30.00;15.35;;;;;;;12.31;69.69;100302.69;5078427;28;20026;-67
2022/10/23 05:45:02;;;;;;;36.67;16.75;;;;;;;12.57;68.72;100294.66;5079243;28;20056;-67
2022/10/23 05:47:28;;;;;;;28.73;15.07;;;;;;;12.87;67.97;100303.88;5077913;28;20067;-67
2022/10/23 05:49:53;;;;;;;26.73;14.30;;;;;;;12.90;68.82;100307.03;5058887;28;20029;-67
2022/10/23 05:52:19;;;;;;;29.88;15.45;;;;;;;12.99;68.78;100306.06;5077914;28;20334;-68
2022/10/23 05:54:45;;;;;;;28.60;14.88;;;;;;;12.97;68.62;100304.56;5078202;28;20032;-67
2022/10/23 05:57:10;;;;;;;24.67;13.23;;;;;;;12.96;68.45;100313.53;5079274;28;20032;-67
2022/10/23 05:59:36;;;;;;;30.17;14.00;;;;;;;13.42;67.29;100307.63;5080840;28;20017;-67
2022/10/23 06:02:01;;;;;;;25.08;13.77;;;;;;;13.77;66.41;100315.44;5078508;28;20028;-67
2022/10/23 06:04:27;;;;;;;31.58;14.25;;;;;;;14.29;65.13;100310.47;5078476;28;20023;-67
2022/10/23 06:06:52;;;;;;;27.33;13.45;;;;;;;14.44;65.01;100307.94;5077271;28;20340;-68
2022/10/23 06:09:18;;;;;;;28.73;10.65;;;;;;;14.64;63.51;100312.69;5078229;28;20033;-67
2022/10/23 06:11:43;;;;;;;23.70;8.13;;;;;;;14.91;60.92;100311.38;5078637;28;20103;-68
2022/10/23 06:14:09;;;;;;;23.55;8.60;;;;;;;15.12;60.10;100318.75;5061751;28;20326;-68
2022/10/23 06:16:34;;;;;;;22.48;8.65;;;;;;;15.51;58.76;100321.28;5081054;28;20044;-67
2022/10/23 06:18:59;;;;;;;18.48;8.30;;;;;;;15.79;57.44;100321.59;5082183;28;20367;-68
2022/10/23 06:21:25;;;;;;;23.10;8.70;;;;;;;16.06;56.39;100321.97;5081904;28;20067;-68
2022/10/23 06:23:51;;;;;;;27.38;8.13;;;;;;;16.41;55.39;100320.41;5074826;28;20040;-68
2022/10/23 06:26:18;;;;;;;18.45;7.45;;;;;;;16.65;54.57;100313.94;5082092;28;20044;-68
2022/10/23 06:28:44;;;;;;;29.90;8.25;;;;;;;16.86;53.59;100324.72;5082012;28;20037;-68
2022/10/23 06:31:11;;;;;;;20.65;7.85;;;;;;;17.05;52.21;100331.31;5081715;28;20031;-68
2022/10/23 06:33:37;;;;;;;21.10;8.35;;;;;;;17.38;51.84;100334.31;5082051;28;20070;-68
2022/10/23 06:36:04;;;;;;;25.52;7.65;;;;;;;17.59;50.99;100346.84;5081965;28;20044;-68
2022/10/23 06:38:35;;;;;;;23.17;7.68;;;;;;;17.74;50.70;100355.69;5081972;28;20314;-68
2022/10/23 06:41:01;;;;;;;20.80;6.70;;;;;;;17.97;49.96;100356.28;5081941;28;20071;-68
2022/10/23 06:43:27;;;;;;;20.75;8.60;;;;;;;18.16;49.01;100350.22;5081981;28;20038;-68
2022/10/23 06:45:52;;;;;;;20.27;7.60;;;;;;;18.22;47.95;100347.78;5084412;28;20044;-68
2022/10/23 06:48:18;;;;;;;16.92;5.68;;;;;;;18.44;47.85;100360.09;5085712;28;20028;-68
2022/10/23 06:50:43;;;;;;;20.48;5.60;;;;;;;18.56;47.18;100355.00;5085393;28;20036;-68
2022/10/23 06:53:09;;;;;;;15.10;5.28;;;;;;;18.75;46.73;100360.50;5085438;28;20040;-68
2022/10/23 06:55:34;;;;;;;21.23;6.90;;;;;;;18.87;46.00;100360.75;5085454;28;20036;-68
2022/10/23 06:58:00;;;;;;;29.58;6.97;;;;;;;19.06;45.03;100353.78;5085729;28;20036;-68
2022/10/23 07:00:25;;;;;;;36.45;7.28;;;;;;;19.20;44.52;100354.66;5085567;28;20051;-68
2022/10/23 07:02:51;;;;;;;16.20;6.05;;;;;;;19.42;44.15;100356.13;5085661;28;20217;-68
2022/10/23 07:05:18;;;;;;;21.52;7.65;;;;;;;19.47;43.67;100361.72;5085368;28;20043;-68
2022/10/23 07:07:43;;;;;;;20.98;6.57;;;;;;;19.85;42.77;100362.00;5084312;28;20044;-68
2022/10/23 07:10:09;;;;;;;19.17;6.78;;;;;;;19.99;42.42;100360.13;5081984;28;20359;-68
2022/10/23 07:12:35;;;;;;;34.30;7.45;;;;;;;20.02;42.81;100365.91;5084883;28;20024;-68
2022/10/23 07:15:00;;;;;;;20.45;6.03;;;;;;;20.26;42.17;100359.06;5085557;28;20218;-68
2022/10/23 07:17:27;;;;;;;37.55;7.22;;;;;;;20.31;42.18;100364.63;5066943;28;20247;-68
2022/10/23 07:19:53;;;;;;;32.60;7.25;;;;;;;20.43;41.94;100369.41;5084989;28;20048;-68
2022/10/23 07:22:18;;;;;;;34.50;7.90;;;;;;;20.58;41.58;100365.41;5084868;28;20024;-69
2022/10/23 07:24:44;;;;;;;27.27;7.38;;;;;;;20.68;41.33;100363.09;5084997;28;20048;-69
2022/10/23 07:27:09;;;;;;;21.40;7.10;;;;;;;20.70;41.35;100365.59;5084275;28;20043;-69
2022/10/23 07:29:35;;;;;;;20.92;6.65;;;;;;;20.90;41.59;100373.59;5084952;28;20017;-68
2022/10/23 07:32:00;;;;;;;24.80;6.95;;;;;;;20.95;41.43;100363.03;5084852;28;20036;-69
2022/10/23 07:34:26;;;;;;;20.65;7.07;;;;;;;20.97;41.09;100369.00;5084460;28;20020;-68
2022/10/23 07:36:53;;;;;;;21.45;7.55;;;;;;;21.15;40.83;100369.13;5084815;28;20024;-69
2022/10/23 07:39:21;;;;;;;23.05;6.82;;;;;;;21.23;40.37;100366.22;5085103;28;20029;-69
2022/10/23 07:41:47;;;;;;;24.95;6.57;;;;;;;21.31;40.55;100371.34;5084477;28;20115;-68
2022/10/23 07:44:12;;;;;;;20.23;7.45;;;;;;;21.36;40.63;100357.22;5084906;28;20040;-68
2022/10/23 07:46:37;;;;;;;16.77;7.05;;;;;;;21.50;40.75;100372.25;5084677;28;20029;-68
2022/10/23 07:49:03;;;;;;;19.05;6.70;;;;;;;21.64;40.83;100376.50;5084241;28;20028;-68
2022/10/23 07:51:28;;;;;;;15.80;6.38;;;;;;;21.71;40.91;100362.13;5084131;28;20260;-68
2022/10/23 07:53:54;;;;;;;31.35;6.70;;;;;;;21.82;40.90;100364.94;5084482;28;20078;-68
2022/10/23 07:56:28;;;;;;;21.85;6.22;;;;;;;21.88;40.51;100349.78;5083667;28;20192;-68
2022/10/23 07:58:54;;;;;;;25.20;7.85;;;;;;;21.92;40.64;100340.22;5084646;28;20040;-68
2022/10/23 08:01:28;;;;;;;22.15;7.10;;;;;;;22.03;40.67;100344.91;5084824;28;20321;-68
2022/10/23 08:03:54;;;;;;;29.23;7.80;;;;;;;22.13;41.06;100339.00;5083993;28;20029;-68
2022/10/23 08:06:19;;;;;;;27.63;7.10;;;;;;;22.22;41.62;100343.88;5084374;28;20043;-68
2022/10/23 08:08:45;;;;;;;63.20;9.05;;;;;;;22.35;41.21;100332.13;5066647;28;20039;-68
2022/10/23 08:11:13;;;;;;;44.70;7.25;;;;;;;22.45;41.09;100337.00;5084287;28;20032;-68
2022/10/23 08:13:39;;;;;;;39.10;7.15;;;;;;;22.50;41.10;100347.94;5084297;28;20036;-68
2022/10/23 08:16:04;;;;;;;67.53;9.23;;;;;;;22.56;41.18;100352.44;5084308;28;20099;-68
2022/10/23 08:18:30;;;;;;;46.47;7.38;;;;;;;22.68;40.97;100345.22;5083709;28;20035;-68
2022/10/23 08:21:00;;;;;;;30.90;7.53;;;;;;;22.73;40.76;100350.78;5083689;28;20039;-68
2022/10/23 08:23:26;;;;;;;29.77;6.28;;;;;;;22.80;40.60;100346.16;5083889;28;20043;-68
2022/10/23 08:26:02;;;;;;;27.10;5.90;;;;;;;22.80;40.76;100342.63;5083556;28;20028;-68
2022/10/23 08:28:28;;;;;;;38.80;6.80;;;;;;;22.84;40.59;100360.84;5083928;28;20071;-68
2022/10/23 08:30:54;;;;;;;22.85;6.38;;;;;;;22.83;40.76;100352.97;5084146;28;20033;-68
2022/10/23 08:33:20;;;;;;;28.52;5.95;;;;;;;22.82;41.17;100367.53;5083743;28;20025;-68
2022/10/23 08:35:45;;;;;;;21.90;6.78;;;;;;;22.94;41.39;100357.63;5083588;28;20044;-69
2022/10/23 08:38:11;;;;;;;33.72;6.10;;;;;;;23.16;40.82;100350.66;5083304;28;20024;-68
2022/10/23 08:40:37;;;;;;;25.70;6.00;;;;;;;23.09;40.63;100339.13;5083495;28;20039;-68
2022/10/23 08:43:02;;;;;;;32.35;5.35;;;;;;;23.24;40.73;100341.41;5083697;28;20082;-68
2022/10/23 08:45:49;;;;;;;17.70;6.07;;;;;;;23.32;40.67;100351.91;5083536;28;20033;-68
2022/10/23 08:48:44;;;;;;;25.77;5.70;;;;;;;23.31;41.62;100358.34;5083246;28;20226;-68
2022/10/23 08:51:21;;;;;;;29.45;5.45;;;;;;;23.44;40.97;100352.75;5082991;28;20044;-68
2022/10/23 08:53:52;;;;;;;23.83;5.25;;;;;;;23.37;41.32;100357.44;5083193;28;20040;-68
2022/10/23 08:56:20;;;;;;;44.63;6.88;;;;;;;23.26;41.48;100355.53;5083433;28;20116;-68
2022/10/23 08:58:52;;;;;;;29.35;5.15;;;;;;;23.15;41.54;100359.84;5083417;28;20092;-69
2022/10/23 09:01:31;;;;;;;18.70;4.75;;;;;;;23.15;41.45;100361.72;5083303;28;20040;-68
2022/10/23 09:03:58;;;;;;;18.33;4.93;;;;;;;23.27;42.10;100348.25;5083159;28;20029;-68
2022/10/23 09:06:34;;;;;;;38.13;6.18;;;;;;;23.37;41.43;100354.72;5083434;28;20032;-68
2022/10/23 09:09:08;;;;;;;18.10;4.43;;;;;;;23.37;41.83;100360.13;5083201;28;20081;-69
2022/10/23 09:11:56;;;;;;;25.30;4.13;;;;;;;23.41;41.50;100368.59;5083106;28;20027;-68
2022/10/23 09:14:33;;;;;;;20.25;4.72;;;;;;;23.39;41.48;100359.91;5083162;28;20047;-68
2022/10/23 09:17:19;;;;;;;15.07;4.30;;;;;;;23.43;41.57;100356.50;5082777;28;20036;-68
2022/10/23 09:19:45;;;;;;;12.38;3.97;;;;;;;23.46;41.70;100361.44;5082817;28;20043;-68
2022/10/23 09:22:12;;;;;;;17.13;5.25;;;;;;;23.38;41.17;100342.88;5082704;28;20032;-68
2022/10/23 09:24:42;;;;;;;20.35;5.57;;;;;;;23.59;41.41;100349.63;5082632;28;20039;-68
2022/10/23 09:27:15;;;;;;;9.05;4.70;;;;;;;23.67;41.56;100353.88;5082255;28;20037;-68
2022/10/23 09:29:50;;;;;;;22.27;6.53;;;;;;;23.74;41.93;100341.06;5082966;28;20035;-68
2022/10/23 09:32:16;;;;;;;25.45;4.75;;;;;;;23.79;41.24;100333.09;5082481;28;20043;-68
2022/10/23 09:34:53;;;;;;;16.55;3.50;;;;;;;23.89;40.66;100330.63;5082541;28;20222;-68
2022/10/23 09:37:22;;;;;;;43.20;17.48;;;;;;;23.87;40.74;100333.56;5082487;28;20032;-68
2022/10/23 09:39:48;;;;;;;21.17;7.63;;;;;;;23.93;39.83;100331.81;5082436;28;20055;-68
2022/10/23 09:42:21;;;;;;;16.40;5.43;;;;;;;23.94;39.63;100327.25;5079213;28;20322;-68
2022/10/23 09:44:49;;;;;;;20.30;5.10;;;;;;;23.94;39.86;100336.19;5082243;28;20096;-69
2022/10/23 09:47:19;;;;;;;23.70;5.18;;;;;;;24.02;39.24;100326.88;5078360;28;20337;-68
2022/10/23 09:50:03;;;;;;;30.75;7.05;;;;;;;24.08;37.68;100329.47;5078681;28;20082;-69
2022/10/23 09:52:34;;;;;;;17.40;3.03;;;;;;;23.98;38.33;100326.53;5078090;28;20048;-68
2022/10/23 09:55:02;;;;;;;22.65;4.00;;;;;;;23.95;38.83;100323.47;5079295;28;20040;-68
2022/10/23 09:57:30;;;;;;;12.63;3.25;;;;;;;24.03;38.96;100328.53;5080777;28;20024;-68
2022/10/23 10:00:02;;;;;;;13.27;6.13;;;;;;;24.18;37.55;100315.34;5080808;28;20044;-68
2022/10/23 10:02:29;;;;;;;11.32;3.47;;;;;;;24.26;37.77;100312.28;5080623;28;20025;-68
2022/10/23 10:04:55;;;;;;;8.48;3.38;;;;;;;24.25;36.34;100313.34;5079296;28;20043;-68
2022/10/23 10:07:29;;;;;;;14.02;4.60;;;;;;;24.18;36.35;100312.63;5077589;28;20025;-68
2022/10/23 10:09:56;;;;;;;12.98;3.72;;;;;;;24.15;36.31;100305.00;5077856;28;20047;-68
2022/10/23 10:12:40;;;;;;;37.28;3.72;;;;;;;24.17;36.08;100302.88;5078739;28;20054;-68
2022/10/23 10:15:21;;;;;;;8.15;3.33;;;;;;;24.22;35.87;100299.47;5079069;28;20111;-68
2022/10/23 10:17:56;;;;;;;9.73;3.78;;;;;;;24.26;35.71;100293.34;5078811;28;20041;-68
2022/10/23 10:20:40;;;;;;;21.75;3.45;;;;;;;24.23;35.08;100301.94;5076860;28;20231;-69
2022/10/23 10:23:15;;;;;;;15.93;8.63;;;;;;;24.27;35.40;100294.19;5077247;28;20405;-68
2022/10/23 10:26:02;;;;;;;14.05;4.30;;;;;;;24.29;35.33;100292.88;5077438;28;20032;-69
2022/10/23 10:28:49;;;;;;;10.32;3.15;;;;;;;24.30;35.21;100291.81;5078726;28;20041;-68
2022/10/23 10:31:47;;;;;;;17.50;3.50;;;;;;;24.35;34.13;100286.53;5080493;28;20039;-68
2022/10/23 10:34:37;;;;;;;7.32;3.55;;;;;;;24.25;34.72;100283.56;5077370;28;20033;-68
2022/10/23 10:37:21;;;;;;;8.35;4.60;;;;;;;24.24;35.19;100279.22;5076615;28;20051;-68
2022/10/23 10:40:01;;;;;;;10.63;3.63;;;;;;;24.30;35.08;100281.00;5077445;28;20028;-69
2022/10/23 10:42:44;;;;;;;12.90;5.05;;;;;;;24.24;35.16;100276.50;5077081;28;20048;-68
2022/10/23 10:45:22;;;;;;;15.57;5.00;;;;;;;24.31;34.52;100271.00;5077262;28;20314;-68
2022/10/23 10:48:30;;;;;;;11.30;4.15;;;;;;;24.28;34.22;100266.06;5077363;28;20028;-68
2022/10/23 10:51:34;;;;;;;11.68;3.95;;;;;;;24.22;34.51;100273.22;5055833;28;20059;-68
2022/10/23 10:54:02;;;;;;;11.50;3.92;;;;;;;24.32;33.95;100265.34;5053313;28;20044;-68
2022/10/23 10:56:32;;;;;;;8.27;3.47;;;;;;;24.25;34.54;100263.81;5077052;28;20059;-68
2022/10/23 10:59:03;;;;;;;12.43;4.82;;;;;;;24.16;34.12;100253.34;5078580;28;20332;-68
2022/10/23 11:02:05;;;;;;;11.48;6.05;;;;;;;24.22;34.08;100256.97;5077292;28;20074;-68
2022/10/23 11:04:35;;;;;;;10.70;4.68;;;;;;;24.16;33.71;100261.47;5078452;28;20248;-68
2022/10/23 11:07:07;;;;;;;8.93;3.30;;;;;;;24.27;33.77;100251.72;5080222;28;20036;-68
2022/10/23 11:09:32;;;;;;;5.97;2.78;;;;;;;24.28;33.54;100242.53;5078687;28;20036;-68
2022/10/23 11:11:58;;;;;;;6.75;2.63;;;;;;;24.32;34.20;100248.28;5077177;28;20040;-68
2022/10/23 11:14:30;;;;;;;11.25;2.75;;;;;;;24.44;33.84;100246.38;5078043;28;20032;-69
2022/10/23 11:17:08;;;;;;;8.13;2.58;;;;;;;24.36;34.03;100252.16;5077623;28;20040;-68
2022/10/23 11:19:44;;;;;;;10.27;3.63;;;;;;;24.33;34.49;100242.63;5076810;28;20033;-68
2022/10/23 11:22:34;;;;;;;11.40;3.15;;;;;;;24.43;34.29;100236.59;5075606;28;20514;-68
2022/10/23 11:25:29;;;;;;;10.07;3.70;;;;;;;24.35;34.57;100247.81;5076778;28;20040;-68
2022/10/23 11:28:13;;;;;;;12.43;6.50;;;;;;;24.32;34.81;100235.56;5056282;28;20033;-68